^^
Saratoga-Weather Station Historical Data
Daily Summary for January 29, 2022 Units:  Both    English   Metric
Daily Weekly Monthly Yearly Custom
  High: Low: Average:
Temperature: 46.8 °F /  8.2 °C 36.9 °F /  2.7 °C 40.6 °F /  4.8 °C
Dew Point: 45.3 °F /  7.4 °C 35.4 °F /  1.9 °C 39.4 °F /  4.1 °C
Humidity: 96% 94% 95%
Wind Speed: 11mph /  17.7km/h - 2.8mph /  4.5km/h
Wind Gust: 20mph /  32.2km/h - -
Wind- - WSW
Pressure: 30.6 in /  1034.9 hPa 30.3 in /  1027.4 hPa -
Precipitation: 0.12 in /  3.0 mm    
Historical Graphs
 
 
Tabular Data for January 29, 2022
Time Temperature Dew Point Pressure Wind Wind Speed Wind Gust Humidity Rainfall Rate (Hourly) solar
00:02 36.9 °F /  2.7 °C 35.6 °F /  2 °C 30.6in /  1034.5hPa West 0.9mph /  1.4km/h 9mph /  14.5km/h 95% 0in /  0.0mm 0 W/m2
00:07 36.9 °F /  2.7 °C 35.6 °F /  2 °C 30.6in /  1034.5hPa Calm   4mph /  6.4km/h 95% 0in /  0.0mm 0 W/m2
00:12 36.9 °F /  2.7 °C 35.6 °F /  2 °C 30.6in /  1034.9hPa West 2.9mph /  4.7km/h 9mph /  14.5km/h 95% 0in /  0.0mm 0 W/m2
00:17 36.9 °F /  2.7 °C 35.6 °F /  2 °C 30.6in /  1034.9hPa Calm   2mph /  3.2km/h 95% 0in /  0.0mm 0 W/m2
00:22 36.9 °F /  2.7 °C 35.6 °F /  2 °C 30.6in /  1034.5hPa West 0.9mph /  1.4km/h 7mph /  11.3km/h 95% 0in /  0.0mm 0 W/m2
00:27 36.9 °F /  2.7 °C 35.6 °F /  2 °C 30.6in /  1034.5hPa NNW 2.9mph /  4.7km/h 5mph /  8km/h 95% 0in /  0.0mm 0 W/m2
00:32 37 °F /  2.8 °C 35.8 °F /  2.1 °C 30.6in /  1034.5hPa SW 2mph /  3.2km/h 4mph /  6.4km/h 95% 0in /  0.0mm 0 W/m2
00:37 37 °F /  2.8 °C 35.8 °F /  2.1 °C 30.6in /  1034.5hPa Calm   2mph /  3.2km/h 95% 0in /  0.0mm 0 W/m2
00:42 37 °F /  2.8 °C 35.8 °F /  2.1 °C 30.5in /  1034.2hPa NW 2.9mph /  4.7km/h 5mph /  8km/h 95% 0in /  0.0mm 0 W/m2
00:47 37 °F /  2.8 °C 35.8 °F /  2.1 °C 30.5in /  1034.2hPa NNE 2mph /  3.2km/h 2mph /  3.2km/h 95% 0in /  0.0mm 0 W/m2
00:52 37 °F /  2.8 °C 35.8 °F /  2.1 °C 30.5in /  1034.2hPa NNW 0.9mph /  1.4km/h 7mph /  11.3km/h 95% 0in /  0.0mm 0 W/m2
00:57 37 °F /  2.8 °C 35.8 °F /  2.1 °C 30.5in /  1034.2hPa SW 2mph /  3.2km/h 5mph /  8km/h 95% 0in /  0.0mm 0 W/m2
01:02 37 °F /  2.8 °C 35.8 °F /  2.1 °C 30.5in /  1033.9hPa SSW 0.9mph /  1.4km/h 3mph /  4.8km/h 95% 0in /  0.0mm 0 W/m2
01:07 37 °F /  2.8 °C 35.8 °F /  2.1 °C 30.5in /  1033.9hPa NNW 2mph /  3.2km/h 2mph /  3.2km/h 95% 0in /  0.0mm 0 W/m2
01:12 37 °F /  2.8 °C 35.8 °F /  2.1 °C 30.5in /  1033.9hPa Calm   3mph /  4.8km/h 95% 0in /  0.0mm 0 W/m2
01:17 37 °F /  2.8 °C 35.8 °F /  2.1 °C 30.5in /  1033.9hPa Calm   3mph /  4.8km/h 95% 0in /  0.0mm 0 W/m2
01:22 37 °F /  2.8 °C 35.8 °F /  2.1 °C 30.5in /  1033.9hPa WNW 4mph /  6.4km/h 6mph /  9.7km/h 95% 0in /  0.0mm 0 W/m2
01:27 37 °F /  2.8 °C 35.8 °F /  2.1 °C 30.5in /  1033.9hPa Calm   3mph /  4.8km/h 95% 0in /  0.0mm 0 W/m2
01:32 37 °F /  2.8 °C 35.8 °F /  2.1 °C 30.5in /  1033.5hPa WSW 2mph /  3.2km/h 8mph /  12.9km/h 95% 0in /  0.0mm 0 W/m2
01:37 37 °F /  2.8 °C 35.8 °F /  2.1 °C 30.5in /  1033.5hPa WSW 0.9mph /  1.4km/h 6mph /  9.7km/h 95% 0in /  0.0mm 0 W/m2
01:42 37 °F /  2.8 °C 35.8 °F /  2.1 °C 30.5in /  1033.5hPa West 0.9mph /  1.4km/h 8mph /  12.9km/h 95% 0in /  0.0mm 0 W/m2
01:47 37 °F /  2.8 °C 35.8 °F /  2.1 °C 30.5in /  1033.5hPa West 0.9mph /  1.4km/h 4mph /  6.4km/h 95% 0in /  0.0mm 0 W/m2
01:52 37 °F /  2.8 °C 35.8 °F /  2.1 °C 30.5in /  1033.5hPa Calm   3mph /  4.8km/h 95% 0in /  0.0mm 0 W/m2
01:57 37 °F /  2.8 °C 35.8 °F /  2.1 °C 30.5in /  1033.5hPa WNW 2mph /  3.2km/h 3mph /  4.8km/h 95% 0in /  0.0mm 0 W/m2
02:02 37 °F /  2.8 °C 35.8 °F /  2.1 °C 30.5in /  1033.5hPa WNW 0.9mph /  1.4km/h 2mph /  3.2km/h 95% 0in /  0.0mm 0 W/m2
02:07 37 °F /  2.8 °C 35.8 °F /  2.1 °C 30.5in /  1033.5hPa Calm   2mph /  3.2km/h 95% 0in /  0.0mm 0 W/m2
02:12 36.9 °F /  2.7 °C 35.6 °F /  2 °C 30.5in /  1033.5hPa Calm   2mph /  3.2km/h 95% 0in /  0.0mm 0 W/m2
02:17 36.9 °F /  2.7 °C 35.6 °F /  2 °C 30.5in /  1033.5hPa Calm   4mph /  6.4km/h 95% 0in /  0.0mm 0 W/m2
02:22 36.9 °F /  2.7 °C 35.6 °F /  2 °C 30.5in /  1033.2hPa West 2.9mph /  4.7km/h 4mph /  6.4km/h 95% 0in /  0.0mm 0 W/m2
02:27 36.9 °F /  2.7 °C 35.6 °F /  2 °C 30.5in /  1033.2hPa Calm   1mph /  1.6km/h 95% 0in /  0.0mm 0 W/m2
02:32 37 °F /  2.8 °C 35.8 °F /  2.1 °C 30.5in /  1033.2hPa WNW 2mph /  3.2km/h 7mph /  11.3km/h 95% 0in /  0.0mm 0 W/m2
02:37 36.9 °F /  2.7 °C 35.6 °F /  2 °C 30.5in /  1033.2hPa WNW 2.9mph /  4.7km/h 3mph /  4.8km/h 95% 0in /  0.0mm 0 W/m2
02:42 37 °F /  2.8 °C 35.8 °F /  2.1 °C 30.5in /  1033.2hPa West 2mph /  3.2km/h 4mph /  6.4km/h 95% 0in /  0.0mm 0 W/m2
02:47 37 °F /  2.8 °C 35.8 °F /  2.1 °C 30.5in /  1033.2hPa ENE 4mph /  6.4km/h 4mph /  6.4km/h 95% 0in /  0.0mm 0 W/m2
02:52 37 °F /  2.8 °C 35.8 °F /  2.1 °C 30.5in /  1033.2hPa South 4.9mph /  7.9km/h 5mph /  8km/h 95% 0in /  0.0mm 0 W/m2
02:57 37 °F /  2.8 °C 35.8 °F /  2.1 °C 30.5in /  1033.2hPa WNW 4mph /  6.4km/h 4mph /  6.4km/h 95% 0in /  0.0mm 0 W/m2
03:02 37 °F /  2.8 °C 35.8 °F /  2.1 °C 30.5in /  1033.2hPa NNW 2mph /  3.2km/h 3mph /  4.8km/h 95% 0in /  0.0mm 0 W/m2
03:07 37 °F /  2.8 °C 35.8 °F /  2.1 °C 30.5in /  1032.8hPa ESE 2.9mph /  4.7km/h 3mph /  4.8km/h 95% 0in /  0.0mm 0 W/m2
03:12 37 °F /  2.8 °C 35.8 °F /  2.1 °C 30.5in /  1032.8hPa Calm   3mph /  4.8km/h 95% 0in /  0.0mm 0 W/m2
03:17 37 °F /  2.8 °C 35.8 °F /  2.1 °C 30.5in /  1032.8hPa NNW 0.9mph /  1.4km/h 3mph /  4.8km/h 95% 0in /  0.0mm 0 W/m2
03:22 37 °F /  2.8 °C 35.8 °F /  2.1 °C 30.5in /  1032.8hPa Calm   3mph /  4.8km/h 95% 0in /  0.0mm 0 W/m2
03:27 37 °F /  2.8 °C 35.8 °F /  2.1 °C 30.5in /  1032.8hPa SE 4mph /  6.4km/h 6mph /  9.7km/h 95% 0in /  0.0mm 0 W/m2
03:32 37 °F /  2.8 °C 35.8 °F /  2.1 °C 30.5in /  1032.5hPa SE 4.9mph /  7.9km/h 6mph /  9.7km/h 95% 0in /  0.0mm 0 W/m2
03:37 37 °F /  2.8 °C 35.8 °F /  2.1 °C 30.5in /  1032.5hPa NW 2.9mph /  4.7km/h 7mph /  11.3km/h 95% 0in /  0.0mm 0 W/m2
03:42 37 °F /  2.8 °C 35.8 °F /  2.1 °C 30.5in /  1032.5hPa NW 2.9mph /  4.7km/h 4mph /  6.4km/h 95% 0in /  0.0mm 0 W/m2
03:47 37 °F /  2.8 °C 35.8 °F /  2.1 °C 30.5in /  1032.2hPa WNW 2mph /  3.2km/h 4mph /  6.4km/h 95% 0in /  0.0mm 0 W/m2
03:52 37 °F /  2.8 °C 35.8 °F /  2.1 °C 30.5in /  1032.2hPa Calm   4mph /  6.4km/h 95% 0in /  0.0mm 0 W/m2
03:57 37 °F /  2.8 °C 35.8 °F /  2.1 °C 30.5in /  1031.8hPa Calm   5mph /  8km/h 95% 0in /  0.0mm 0 W/m2
04:02 37 °F /  2.8 °C 35.4 °F /  1.9 °C 30.5in /  1031.8hPa South 2.9mph /  4.7km/h 8mph /  12.9km/h 94% 0in /  0.0mm 0 W/m2
04:07 37 °F /  2.8 °C 35.4 °F /  1.9 °C 30.5in /  1031.8hPa NE 0.9mph /  1.4km/h 4mph /  6.4km/h 94% 0in /  0.0mm 0 W/m2
04:12 37.2 °F /  2.9 °C 35.6 °F /  2 °C 30.5in /  1031.8hPa West 6mph /  9.7km/h 8mph /  12.9km/h 94% 0in /  0.0mm 0 W/m2
04:17 37.2 °F /  2.9 °C 35.6 °F /  2 °C 30.5in /  1031.8hPa SSE 4mph /  6.4km/h 5mph /  8km/h 94% 0in /  0.0mm 0 W/m2
04:22 37.2 °F /  2.9 °C 35.6 °F /  2 °C 30.5in /  1031.5hPa SE 8.1mph /  13km/h 8mph /  12.9km/h 94% 0in /  0.0mm 0 W/m2
04:27 37.2 °F /  2.9 °C 35.6 °F /  2 °C 30.5in /  1031.5hPa ESE 2.9mph /  4.7km/h 3mph /  4.8km/h 94% 0in /  0.0mm 0 W/m2
04:32 37.2 °F /  2.9 °C 35.6 °F /  2 °C 30.5in /  1031.8hPa NW 2mph /  3.2km/h 8mph /  12.9km/h 94% 0in /  0.0mm 0 W/m2
04:37 37.2 °F /  2.9 °C 35.6 °F /  2 °C 30.5in /  1031.5hPa WNW 0.9mph /  1.4km/h 5mph /  8km/h 94% 0in /  0.0mm 0 W/m2
04:42 37.2 °F /  2.9 °C 35.6 °F /  2 °C 30.5in /  1031.5hPa West 0.9mph /  1.4km/h 7mph /  11.3km/h 94% 0in /  0.0mm 0 W/m2
04:47 37.2 °F /  2.9 °C 35.6 °F /  2 °C 30.5in /  1031.5hPa NNW 2.9mph /  4.7km/h 4mph /  6.4km/h 94% 0in /  0.0mm 0 W/m2
04:52 37.2 °F /  2.9 °C 35.6 °F /  2 °C 30.5in /  1031.5hPa NW 2.9mph /  4.7km/h 4mph /  6.4km/h 94% 0in /  0.0mm 0 W/m2
04:57 37.2 °F /  2.9 °C 35.6 °F /  2 °C 30.5in /  1031.8hPa WNW 4mph /  6.4km/h 7mph /  11.3km/h 94% 0in /  0.0mm 0 W/m2
05:02 37.4 °F /  3 °C 35.8 °F /  2.1 °C 30.5in /  1031.8hPa NW 0.9mph /  1.4km/h 4mph /  6.4km/h 94% 0in /  0.0mm 0 W/m2
05:07 37.4 °F /  3 °C 35.8 °F /  2.1 °C 30.5in /  1031.8hPa WNW 2mph /  3.2km/h 6mph /  9.7km/h 94% 0in /  0.0mm 0 W/m2
05:12 37.4 °F /  3 °C 35.8 °F /  2.1 °C 30.5in /  1031.8hPa Calm   7mph /  11.3km/h 94% 0in /  0.0mm 0 W/m2
05:17 37.4 °F /  3 °C 35.8 °F /  2.1 °C 30.5in /  1031.8hPa WSW 0.9mph /  1.4km/h 2mph /  3.2km/h 94% 0in /  0.0mm 0 W/m2
05:22 37.4 °F /  3 °C 35.8 °F /  2.1 °C 30.5in /  1031.5hPa NE 4mph /  6.4km/h 4mph /  6.4km/h 94% 0in /  0.0mm 0 W/m2
05:27 37.4 °F /  3 °C 35.8 °F /  2.1 °C 30.5in /  1031.5hPa Calm   7mph /  11.3km/h 94% 0in /  0.0mm 0 W/m2
05:32 37.4 °F /  3 °C 35.8 °F /  2.1 °C 30.5in /  1031.5hPa NW 2mph /  3.2km/h 3mph /  4.8km/h 94% 0in /  0.0mm 0 W/m2
05:37 37.4 °F /  3 °C 35.8 °F /  2.1 °C 30.5in /  1031.5hPa WSW 2mph /  3.2km/h 7mph /  11.3km/h 94% 0in /  0.0mm 0 W/m2
05:42 37.4 °F /  3 °C 35.8 °F /  2.1 °C 30.5in /  1031.5hPa West 0.9mph /  1.4km/h 2mph /  3.2km/h 94% 0in /  0.0mm 0 W/m2
05:47 37.4 °F /  3 °C 35.8 °F /  2.1 °C 30.5in /  1031.5hPa North 0.9mph /  1.4km/h 3mph /  4.8km/h 94% 0in /  0.0mm 0 W/m2
05:52 37.4 °F /  3 °C 35.8 °F /  2.1 °C 30.5in /  1031.2hPa NW 2.9mph /  4.7km/h 5mph /  8km/h 94% 0in /  0.0mm 0 W/m2
05:57 37.4 °F /  3 °C 35.8 °F /  2.1 °C 30.5in /  1031.2hPa WNW 0.9mph /  1.4km/h 3mph /  4.8km/h 94% 0in /  0.0mm 0 W/m2
06:02 37.4 °F /  3 °C 35.8 °F /  2.1 °C 30.5in /  1031.2hPa North 0.9mph /  1.4km/h 2mph /  3.2km/h 94% 0in /  0.0mm 0 W/m2
06:07 37.4 °F /  3 °C 35.8 °F /  2.1 °C 30.5in /  1031.2hPa WNW 4mph /  6.4km/h 8mph /  12.9km/h 94% 0in /  0.0mm 0 W/m2
06:12 37.2 °F /  2.9 °C 35.6 °F /  2 °C 30.5in /  1031.2hPa NE 4mph /  6.4km/h 5mph /  8km/h 94% 0in /  0.0mm 0 W/m2
06:17 37.2 °F /  2.9 °C 35.6 °F /  2 °C 30.5in /  1031.2hPa WSW 2.9mph /  4.7km/h 7mph /  11.3km/h 94% 0in /  0.0mm 0 W/m2
06:22 37.2 °F /  2.9 °C 36 °F /  2.2 °C 30.5in /  1031.2hPa WNW 0.9mph /  1.4km/h 5mph /  8km/h 95% 0in /  0.0mm 0 W/m2
06:27 37.2 °F /  2.9 °C 36 °F /  2.2 °C 30.5in /  1031.2hPa Calm   3mph /  4.8km/h 95% 0in /  0.0mm 0 W/m2
06:33 37.2 °F /  2.9 °C 36 °F /  2.2 °C 30.5in /  1031.2hPa WNW 4mph /  6.4km/h 5mph /  8km/h 95% 0in /  0.0mm 0 W/m2
06:38 37.2 °F /  2.9 °C 36 °F /  2.2 °C 30.5in /  1031.2hPa NW 4mph /  6.4km/h 6mph /  9.7km/h 95% 0in /  0.0mm 0 W/m2
06:43 37.2 °F /  2.9 °C 36 °F /  2.2 °C 30.5in /  1031.2hPa WNW 2mph /  3.2km/h 3mph /  4.8km/h 95% 0in /  0.0mm 0 W/m2
06:48 37.2 °F /  2.9 °C 36 °F /  2.2 °C 30.5in /  1031.2hPa Calm   1mph /  1.6km/h 95% 0in /  0.0mm 0 W/m2
06:53 37.2 °F /  2.9 °C 36 °F /  2.2 °C 30.5in /  1031.2hPa Calm   4mph /  6.4km/h 95% 0in /  0.0mm 0 W/m2
06:58 37.2 °F /  2.9 °C 36 °F /  2.2 °C 30.5in /  1031.2hPa WNW 2mph /  3.2km/h 8mph /  12.9km/h 95% 0in /  0.0mm 0 W/m2
07:03 37.2 °F /  2.9 °C 36 °F /  2.2 °C 30.5in /  1031.2hPa West 0.9mph /  1.4km/h 6mph /  9.7km/h 95% 0in /  0.0mm 0 W/m2
07:08 37.4 °F /  3 °C 36.1 °F /  2.3 °C 30.5in /  1031.2hPa East 0.9mph /  1.4km/h 8mph /  12.9km/h 95% 0in /  0.0mm 0 W/m2
07:13 37.4 °F /  3 °C 36.1 °F /  2.3 °C 30.5in /  1031.2hPa NNE 0.9mph /  1.4km/h 2mph /  3.2km/h 95% 0in /  0.0mm 0 W/m2
07:18 37.4 °F /  3 °C 36.1 °F /  2.3 °C 30.5in /  1031.2hPa NW 2mph /  3.2km/h 4mph /  6.4km/h 95% 0in /  0.0mm 0 W/m2
07:23 37.4 °F /  3 °C 36.1 °F /  2.3 °C 30.4in /  1030.8hPa WNW 6.9mph /  11.1km/h 7mph /  11.3km/h 95% 0in /  0.0mm 0 W/m2
07:28 37.4 °F /  3 °C 36.1 °F /  2.3 °C 30.4in /  1030.8hPa WSW 2mph /  3.2km/h 4mph /  6.4km/h 95% 0.01in /  0.2mm 0 W/m2
07:33 37.4 °F /  3 °C 36.1 °F /  2.3 °C 30.4in /  1030.8hPa West 4mph /  6.4km/h 4mph /  6.4km/h 95% 0.01in /  0.2mm 0 W/m2
07:38 37.4 °F /  3 °C 36.1 °F /  2.3 °C 30.5in /  1031.2hPa West 0.9mph /  1.4km/h 7mph /  11.3km/h 95% 0.01in /  0.2mm 0 W/m2
07:43 37.6 °F /  3.1 °C 36.3 °F /  2.4 °C 30.5in /  1031.2hPa Calm   1mph /  1.6km/h 95% 0.01in /  0.2mm 0 W/m2
07:48 37.6 °F /  3.1 °C 36.3 °F /  2.4 °C 30.5in /  1031.2hPa NNW 0.9mph /  1.4km/h 8mph /  12.9km/h 95% 0.01in /  0.2mm 0 W/m2
07:53 37.6 °F /  3.1 °C 36.3 °F /  2.4 °C 30.5in /  1031.2hPa Calm   2mph /  3.2km/h 95% 0.01in /  0.2mm 0 W/m2
07:58 37.6 °F /  3.1 °C 36.3 °F /  2.4 °C 30.5in /  1031.2hPa Calm   2mph /  3.2km/h 95% 0.01in /  0.2mm 0 W/m2
08:03 37.6 °F /  3.1 °C 36.3 °F /  2.4 °C 30.5in /  1031.2hPa WSW 4mph /  6.4km/h 4mph /  6.4km/h 95% 0.01in /  0.2mm 0 W/m2
08:08 37.6 °F /  3.1 °C 36.3 °F /  2.4 °C 30.4in /  1030.8hPa Calm   3mph /  4.8km/h 95% 0.02in /  0.5mm 0 W/m2
08:13 37.6 °F /  3.1 °C 36.3 °F /  2.4 °C 30.4in /  1030.8hPa Calm   3mph /  4.8km/h 95% 0.02in /  0.5mm 0 W/m2
08:18 37.6 °F /  3.1 °C 36.3 °F /  2.4 °C 30.4in /  1030.8hPa ENE 0.9mph /  1.4km/h 3mph /  4.8km/h 95% 0.02in /  0.5mm 0 W/m2
08:23 37.8 °F /  3.2 °C 36.5 °F /  2.5 °C 30.4in /  1030.8hPa South 4.9mph /  7.9km/h 8mph /  12.9km/h 95% 0.02in /  0.5mm 0 W/m2
08:28 37.8 °F /  3.2 °C 36.5 °F /  2.5 °C 30.5in /  1031.2hPa NNE 0.9mph /  1.4km/h 5mph /  8km/h 95% 0.01in /  0.2mm 5 W/m2
08:33 37.8 °F /  3.2 °C 36.5 °F /  2.5 °C 30.4in /  1030.8hPa NNW 2mph /  3.2km/h 3mph /  4.8km/h 95% 0.01in /  0.2mm 7 W/m2
08:38 37.8 °F /  3.2 °C 36.5 °F /  2.5 °C 30.4in /  1030.8hPa NNW 2.9mph /  4.7km/h 6mph /  9.7km/h 95% 0.01in /  0.2mm 12 W/m2
08:43 37.8 °F /  3.2 °C 36.5 °F /  2.5 °C 30.4in /  1030.8hPa Calm   9mph /  14.5km/h 95% 0.01in /  0.2mm 12 W/m2
08:48 37.9 °F /  3.3 °C 36.7 °F /  2.6 °C 30.4in /  1030.8hPa WSW 0.9mph /  1.4km/h 8mph /  12.9km/h 95% 0.01in /  0.2mm 18 W/m2
08:53 37.9 °F /  3.3 °C 36.7 °F /  2.6 °C 30.4in /  1030.8hPa West 2.9mph /  4.7km/h 9mph /  14.5km/h 95% 0.01in /  0.2mm 16 W/m2
08:58 37.9 °F /  3.3 °C 36.7 °F /  2.6 °C 30.5in /  1031.2hPa WNW 2.9mph /  4.7km/h 4mph /  6.4km/h 95% 0.01in /  0.2mm 21 W/m2
09:03 37.9 °F /  3.3 °C 36.7 °F /  2.6 °C 30.5in /  1031.2hPa WNW 4mph /  6.4km/h 7mph /  11.3km/h 95% 0.01in /  0.2mm 32 W/m2
09:08 37.9 °F /  3.3 °C 36.7 °F /  2.6 °C 30.5in /  1031.2hPa WNW 2mph /  3.2km/h 4mph /  6.4km/h 95% 0.01in /  0.2mm 14 W/m2
09:13 37.9 °F /  3.3 °C 36.7 °F /  2.6 °C 30.5in /  1031.2hPa WNW 2mph /  3.2km/h 7mph /  11.3km/h 95% 0.01in /  0.2mm 18 W/m2
09:18 38.1 °F /  3.4 °C 36.9 °F /  2.7 °C 30.5in /  1031.2hPa NW 2mph /  3.2km/h 3mph /  4.8km/h 95% 0.01in /  0.2mm 32 W/m2
09:23 38.1 °F /  3.4 °C 37 °F /  2.8 °C 30.5in /  1031.2hPa SSE 2mph /  3.2km/h 5mph /  8km/h 96% 0.01in /  0.2mm 25 W/m2
09:28 38.1 °F /  3.4 °C 37 °F /  2.8 °C 30.4in /  1030.8hPa Calm   4mph /  6.4km/h 96% 0.01in /  0.2mm 37 W/m2
09:33 38.1 °F /  3.4 °C 37 °F /  2.8 °C 30.4in /  1030.8hPa Calm   2mph /  3.2km/h 96% 0.01in /  0.2mm 28 W/m2
09:38 38.3 °F /  3.5 °C 37.2 °F /  2.9 °C 30.4in /  1030.8hPa WNW 2mph /  3.2km/h 4mph /  6.4km/h 96% 0.01in /  0.2mm 33 W/m2
09:43 38.3 °F /  3.5 °C 37.2 °F /  2.9 °C 30.4in /  1030.8hPa WNW 2mph /  3.2km/h 3mph /  4.8km/h 96% 0.01in /  0.2mm 28 W/m2
09:48 38.5 °F /  3.6 °C 37.4 °F /  3 °C 30.4in /  1030.8hPa SW 2mph /  3.2km/h 3mph /  4.8km/h 96% 0.01in /  0.2mm 18 W/m2
09:53 38.5 °F /  3.6 °C 37.4 °F /  3 °C 30.4in /  1030.8hPa West 2.9mph /  4.7km/h 7mph /  11.3km/h 96% 0.01in /  0.2mm 54 W/m2
09:58 38.5 °F /  3.6 °C 37.2 °F /  2.9 °C 30.4in /  1030.5hPa Calm   6mph /  9.7km/h 95% 0.01in /  0.2mm 39 W/m2
10:03 38.5 °F /  3.6 °C 37.2 °F /  2.9 °C 30.4in /  1030.5hPa SW 4mph /  6.4km/h 4mph /  6.4km/h 95% 0in /  0.0mm 44 W/m2
10:08 38.7 °F /  3.7 °C 37.4 °F /  3 °C 30.4in /  1030.5hPa NNE 0.9mph /  1.4km/h 2mph /  3.2km/h 95% 0in /  0.0mm 54 W/m2
10:13 38.7 °F /  3.7 °C 37.4 °F /  3 °C 30.4in /  1030.5hPa WNW 0.9mph /  1.4km/h 6mph /  9.7km/h 95% 0in /  0.0mm 47 W/m2
10:18 38.7 °F /  3.7 °C 37.4 °F /  3 °C 30.4in /  1030.5hPa North 0.9mph /  1.4km/h 6mph /  9.7km/h 95% 0in /  0.0mm 47 W/m2
10:23 38.7 °F /  3.7 °C 37.4 °F /  3 °C 30.4in /  1030.5hPa NW 2mph /  3.2km/h 8mph /  12.9km/h 95% 0.01in /  0.2mm 63 W/m2
10:28 38.7 °F /  3.7 °C 37.4 °F /  3 °C 30.4in /  1030.5hPa NW 2mph /  3.2km/h 5mph /  8km/h 95% 0.01in /  0.2mm 44 W/m2
10:33 38.8 °F /  3.8 °C 37.8 °F /  3.2 °C 30.4in /  1030.1hPa Calm   8mph /  12.9km/h 96% 0.01in /  0.2mm 69 W/m2
10:38 38.8 °F /  3.8 °C 37.8 °F /  3.2 °C 30.4in /  1030.5hPa WSW 6.9mph /  11.1km/h 7mph /  11.3km/h 96% 0.01in /  0.2mm 51 W/m2
10:43 38.8 °F /  3.8 °C 37.8 °F /  3.2 °C 30.4in /  1030.5hPa NNW 4mph /  6.4km/h 5mph /  8km/h 96% 0.01in /  0.2mm 62 W/m2
10:48 39 °F /  3.9 °C 37.9 °F /  3.3 °C 30.4in /  1030.5hPa SSE 0.9mph /  1.4km/h 7mph /  11.3km/h 96% 0.01in /  0.2mm 46 W/m2
10:53 39 °F /  3.9 °C 37.8 °F /  3.2 °C 30.4in /  1030.5hPa NW 2.9mph /  4.7km/h 5mph /  8km/h 95% 0.01in /  0.2mm 46 W/m2
10:58 39.2 °F /  4 °C 37.9 °F /  3.3 °C 30.4in /  1030.5hPa West 2mph /  3.2km/h 6mph /  9.7km/h 95% 0.01in /  0.2mm 49 W/m2
11:03 39.2 °F /  4 °C 37.9 °F /  3.3 °C 30.4in /  1030.5hPa West 2.9mph /  4.7km/h 8mph /  12.9km/h 95% 0.01in /  0.2mm 35 W/m2
11:08 39.4 °F /  4.1 °C 38.1 °F /  3.4 °C 30.4in /  1030.5hPa NNE 0.9mph /  1.4km/h 3mph /  4.8km/h 95% 0.01in /  0.2mm 32 W/m2
11:13 39.4 °F /  4.1 °C 38.1 °F /  3.4 °C 30.4in /  1030.5hPa West 0.9mph /  1.4km/h 8mph /  12.9km/h 95% 0.01in /  0.2mm 58 W/m2
11:18 39.4 °F /  4.1 °C 38.3 °F /  3.5 °C 30.4in /  1030.1hPa WNW 2mph /  3.2km/h 3mph /  4.8km/h 96% 0in /  0.0mm 51 W/m2
11:23 39.6 °F /  4.2 °C 38.5 °F /  3.6 °C 30.4in /  1030.1hPa NW 2mph /  3.2km/h 7mph /  11.3km/h 96% 0in /  0.0mm 88 W/m2
11:28 39.6 °F /  4.2 °C 38.5 °F /  3.6 °C 30.4in /  1030.1hPa North 2mph /  3.2km/h 4mph /  6.4km/h 96% 0in /  0.0mm 83 W/m2
11:33 39.7 °F /  4.3 °C 38.7 °F /  3.7 °C 30.4in /  1030.1hPa SW 2mph /  3.2km/h 6mph /  9.7km/h 96% 0in /  0.0mm 76 W/m2
11:38 39.7 °F /  4.3 °C 38.7 °F /  3.7 °C 30.4in /  1030.1hPa SW 4mph /  6.4km/h 10mph /  16.1km/h 96% 0in /  0.0mm 88 W/m2
11:43 39.9 °F /  4.4 °C 38.8 °F /  3.8 °C 30.4in /  1030.1hPa North 2mph /  3.2km/h 3mph /  4.8km/h 96% 0in /  0.0mm 69 W/m2
11:48 39.9 °F /  4.4 °C 38.8 °F /  3.8 °C 30.4in /  1030.1hPa South 2mph /  3.2km/h 10mph /  16.1km/h 96% 0in /  0.0mm 84 W/m2
11:53 40.3 °F /  4.6 °C 39.2 °F /  4 °C 30.4in /  1030.1hPa West 2mph /  3.2km/h 4mph /  6.4km/h 96% 0in /  0.0mm 79 W/m2
11:58 40.3 °F /  4.6 °C 39.2 °F /  4 °C 30.4in /  1030.1hPa Calm   3mph /  4.8km/h 96% 0in /  0.0mm 127 W/m2
12:03 40.5 °F /  4.7 °C 39.4 °F /  4.1 °C 30.4in /  1030.1hPa ENE 0.9mph /  1.4km/h   96% 0in /  0.0mm 53 W/m2
12:08 40.5 °F /  4.7 °C 39.2 °F /  4 °C 30.4in /  1029.8hPa WSW 0.9mph /  1.4km/h 11mph /  17.7km/h 95% 0in /  0.0mm 98 W/m2
12:13 40.5 °F /  4.7 °C 39.2 °F /  4 °C 30.4in /  1029.8hPa NNE 2mph /  3.2km/h 10mph /  16.1km/h 95% 0in /  0.0mm 97 W/m2
12:18 40.6 °F /  4.8 °C 39.6 °F /  4.2 °C 30.4in /  1029.8hPa SE 2.9mph /  4.7km/h 11mph /  17.7km/h 96% 0in /  0.0mm 97 W/m2
12:23 40.6 °F /  4.8 °C 39.6 °F /  4.2 °C 30.4in /  1029.8hPa East 2.9mph /  4.7km/h 9mph /  14.5km/h 96% 0in /  0.0mm 102 W/m2
12:28 40.8 °F /  4.9 °C 39.6 °F /  4.2 °C 30.4in /  1029.8hPa NNW 2.9mph /  4.7km/h 9mph /  14.5km/h 95% 0in /  0.0mm 116 W/m2
12:33 41.2 °F /  5.1 °C 39.9 °F /  4.4 °C 30.4in /  1029.5hPa WNW 4.9mph /  7.9km/h 10mph /  16.1km/h 95% 0in /  0.0mm 130 W/m2
12:38 41.2 °F /  5.1 °C 40.1 °F /  4.5 °C 30.4in /  1029.5hPa WNW 2.9mph /  4.7km/h 3mph /  4.8km/h 96% 0in /  0.0mm 132 W/m2
12:43 41.4 °F /  5.2 °C 40.3 °F /  4.6 °C 30.4in /  1029.5hPa NW 2.9mph /  4.7km/h 4mph /  6.4km/h 96% 0in /  0.0mm 139 W/m2
12:48 41.5 °F /  5.3 °C 40.5 °F /  4.7 °C 30.4in /  1029.5hPa SW 2mph /  3.2km/h 9mph /  14.5km/h 96% 0in /  0.0mm 79 W/m2
12:53 41.7 °F /  5.4 °C 40.5 °F /  4.7 °C 30.4in /  1029.1hPa West 2.9mph /  4.7km/h 6mph /  9.7km/h 95% 0in /  0.0mm 37 W/m2
12:58 41.7 °F /  5.4 °C 40.6 °F /  4.8 °C 30.4in /  1029.1hPa NW 2mph /  3.2km/h 9mph /  14.5km/h 96% 0in /  0.0mm 74 W/m2
13:03 41.9 °F /  5.5 °C 40.8 °F /  4.9 °C 30.4in /  1029.1hPa South 2mph /  3.2km/h 13mph /  20.9km/h 96% 0in /  0.0mm 104 W/m2
13:08 42.1 °F /  5.6 °C 40.8 °F /  4.9 °C 30.4in /  1029.1hPa NE 4mph /  6.4km/h 8mph /  12.9km/h 95% 0in /  0.0mm 105 W/m2
13:13 42.3 °F /  5.7 °C 41 °F /  5 °C 30.4in /  1029.1hPa West 8.1mph /  13km/h 13mph /  20.9km/h 95% 0in /  0.0mm 102 W/m2
13:18 42.3 °F /  5.7 °C 41 °F /  5 °C 30.4in /  1028.8hPa WNW 2.9mph /  4.7km/h 7mph /  11.3km/h 95% 0in /  0.0mm 162 W/m2
13:23 42.3 °F /  5.7 °C 41 °F /  5 °C 30.4in /  1028.8hPa West 6mph /  9.7km/h 13mph /  20.9km/h 95% 0in /  0.0mm 81 W/m2
13:28 42.3 °F /  5.7 °C 41 °F /  5 °C 30.4in /  1028.5hPa South 6mph /  9.7km/h 7mph /  11.3km/h 95% 0in /  0.0mm 86 W/m2
13:34 42.3 °F /  5.7 °C 41 °F /  5 °C 30.4in /  1028.5hPa West 2.9mph /  4.7km/h 3mph /  4.8km/h 95% 0in /  0.0mm 83 W/m2
13:39 42.3 °F /  5.7 °C 41 °F /  5 °C 30.4in /  1028.5hPa NW 2.9mph /  4.7km/h 7mph /  11.3km/h 95% 0in /  0.0mm 81 W/m2
13:44 42.3 °F /  5.7 °C 41 °F /  5 °C 30.4in /  1028.5hPa WNW 2mph /  3.2km/h 4mph /  6.4km/h 95% 0in /  0.0mm 76 W/m2
13:49 42.1 °F /  5.6 °C 40.8 °F /  4.9 °C 30.4in /  1028.5hPa West 6mph /  9.7km/h 14mph /  22.5km/h 95% 0in /  0.0mm 86 W/m2
13:54 42.1 °F /  5.6 °C 40.8 °F /  4.9 °C 30.4in /  1028.5hPa WSW 2mph /  3.2km/h 10mph /  16.1km/h 95% 0in /  0.0mm 83 W/m2
13:59 42.3 °F /  5.7 °C 41 °F /  5 °C 30.4in /  1028.1hPa West 6mph /  9.7km/h 14mph /  22.5km/h 95% 0in /  0.0mm 72 W/m2
14:04 42.3 °F /  5.7 °C 41 °F /  5 °C 30.4in /  1028.1hPa SW 2.9mph /  4.7km/h 6mph /  9.7km/h 95% 0in /  0.0mm 72 W/m2
14:09 42.4 °F /  5.8 °C 41.2 °F /  5.1 °C 30.4in /  1028.1hPa NW 2mph /  3.2km/h 11mph /  17.7km/h 95% 0in /  0.0mm 83 W/m2
14:14 42.4 °F /  5.8 °C 41.2 °F /  5.1 °C 30.4in /  1028.1hPa West 6.9mph /  11.1km/h 7mph /  11.3km/h 95% 0in /  0.0mm 97 W/m2
14:19 42.4 °F /  5.8 °C 41.2 °F /  5.1 °C 30.4in /  1028.1hPa WNW 4mph /  6.4km/h 11mph /  17.7km/h 95% 0in /  0.0mm 74 W/m2
14:24 42.4 °F /  5.8 °C 41.2 °F /  5.1 °C 30.4in /  1027.8hPa SW 2mph /  3.2km/h 4mph /  6.4km/h 95% 0in /  0.0mm 63 W/m2
14:29 42.6 °F /  5.9 °C 41.4 °F /  5.2 °C 30.4in /  1027.8hPa WNW 4.9mph /  7.9km/h 7mph /  11.3km/h 95% 0in /  0.0mm 79 W/m2
14:34 42.8 °F /  6 °C 41.5 °F /  5.3 °C 30.4in /  1028.1hPa NW 2.9mph /  4.7km/h 7mph /  11.3km/h 95% 0in /  0.0mm 79 W/m2
14:39 42.8 °F /  6 °C 41.5 °F /  5.3 °C 30.4in /  1027.8hPa West 2.9mph /  4.7km/h 7mph /  11.3km/h 95% 0in /  0.0mm 81 W/m2
14:44 43 °F /  6.1 °C 41.7 °F /  5.4 °C 30.4in /  1027.8hPa WNW 11mph /  17.7km/h 11mph /  17.7km/h 95% 0in /  0.0mm 81 W/m2
14:49 43 °F /  6.1 °C 41.7 °F /  5.4 °C 30.4in /  1027.8hPa NW 2mph /  3.2km/h 7mph /  11.3km/h 95% 0in /  0.0mm 86 W/m2
14:54 43 °F /  6.1 °C 41.7 °F /  5.4 °C 30.4in /  1027.8hPa SW 4mph /  6.4km/h 8mph /  12.9km/h 95% 0.01in /  0.2mm 114 W/m2
14:59 43.2 °F /  6.2 °C 41.9 °F /  5.5 °C 30.4in /  1027.8hPa WSW 4mph /  6.4km/h 9mph /  14.5km/h 95% 0.01in /  0.2mm 88 W/m2
15:04 43.3 °F /  6.3 °C 42.1 °F /  5.6 °C 30.3in /  1027.4hPa North 2.9mph /  4.7km/h 10mph /  16.1km/h 95% 0.01in /  0.2mm 90 W/m2
15:09 43.3 °F /  6.3 °C 42.1 °F /  5.6 °C 30.3in /  1027.4hPa WSW 4.9mph /  7.9km/h 20mph /  32.2km/h 95% 0.01in /  0.2mm 69 W/m2
15:14 43.3 °F /  6.3 °C 42.1 °F /  5.6 °C 30.3in /  1027.4hPa WNW 4.9mph /  7.9km/h 13mph /  20.9km/h 95% 0.01in /  0.2mm 60 W/m2
15:19 43.3 °F /  6.3 °C 42.1 °F /  5.6 °C 30.3in /  1027.4hPa WNW 2.9mph /  4.7km/h 20mph /  32.2km/h 95% 0.01in /  0.2mm 58 W/m2
15:24 43.3 °F /  6.3 °C 42.1 °F /  5.6 °C 30.3in /  1027.4hPa WNW 11mph /  17.7km/h 13mph /  20.9km/h 95% 0.01in /  0.2mm 46 W/m2
15:29 43.3 °F /  6.3 °C 42.1 °F /  5.6 °C 30.3in /  1027.4hPa NW 8.9mph /  14.3km/h 10mph /  16.1km/h 95% 0.01in /  0.2mm 53 W/m2
15:34 43.3 °F /  6.3 °C 42.1 °F /  5.6 °C 30.3in /  1027.4hPa WNW 4mph /  6.4km/h 11mph /  17.7km/h 95% 0.01in /  0.2mm 65 W/m2
15:39 43.3 °F /  6.3 °C 42.1 °F /  5.6 °C 30.3in /  1027.4hPa NW 4.9mph /  7.9km/h 8mph /  12.9km/h 95% 0.01in /  0.2mm 74 W/m2
15:44 43.3 °F /  6.3 °C 42.1 °F /  5.6 °C 30.3in /  1027.4hPa West 4mph /  6.4km/h 13mph /  20.9km/h 95% 0.01in /  0.2mm 69 W/m2
15:49 43.3 °F /  6.3 °C 42.1 °F /  5.6 °C 30.3in /  1027.4hPa WNW 2.9mph /  4.7km/h 9mph /  14.5km/h 95% 0.01in /  0.2mm 56 W/m2
15:54 43.3 °F /  6.3 °C 42.1 °F /  5.6 °C 30.3in /  1027.4hPa NW 2mph /  3.2km/h 13mph /  20.9km/h 95% 0in /  0.0mm 44 W/m2
15:59 43.3 °F /  6.3 °C 42.1 °F /  5.6 °C 30.4in /  1027.8hPa NW 4.9mph /  7.9km/h 9mph /  14.5km/h 95% 0in /  0.0mm 33 W/m2
16:04 43.3 °F /  6.3 °C 42.1 °F /  5.6 °C 30.4in /  1027.8hPa WSW 2.9mph /  4.7km/h 9mph /  14.5km/h 95% 0in /  0.0mm 35 W/m2
16:09 43.2 °F /  6.2 °C 41.9 °F /  5.5 °C 30.3in /  1027.4hPa West 2mph /  3.2km/h 14mph /  22.5km/h 95% 0in /  0.0mm 30 W/m2
16:14 43.3 °F /  6.3 °C 42.1 °F /  5.6 °C 30.4in /  1027.8hPa WNW 2.9mph /  4.7km/h 12mph /  19.3km/h 95% 0in /  0.0mm 40 W/m2
16:19 43.3 °F /  6.3 °C 42.1 °F /  5.6 °C 30.3in /  1027.4hPa NW 4.9mph /  7.9km/h 14mph /  22.5km/h 95% 0in /  0.0mm 46 W/m2
16:24 43.3 °F /  6.3 °C 42.1 °F /  5.6 °C 30.3in /  1027.4hPa NW 4mph /  6.4km/h 9mph /  14.5km/h 95% 0in /  0.0mm 44 W/m2
16:29 43.3 °F /  6.3 °C 42.1 °F /  5.6 °C 30.3in /  1027.4hPa WNW 4.9mph /  7.9km/h 11mph /  17.7km/h 95% 0in /  0.0mm 39 W/m2
16:34 43.3 °F /  6.3 °C 42.1 °F /  5.6 °C 30.4in /  1027.8hPa WNW 4mph /  6.4km/h 8mph /  12.9km/h 95% 0in /  0.0mm 35 W/m2
16:39 43.3 °F /  6.3 °C 42.1 °F /  5.6 °C 30.4in /  1027.8hPa WNW 4mph /  6.4km/h 12mph /  19.3km/h 95% 0in /  0.0mm 32 W/m2
16:44 43.3 °F /  6.3 °C 42.1 °F /  5.6 °C 30.3in /  1027.4hPa SW 4.9mph /  7.9km/h 14mph /  22.5km/h 95% 0in /  0.0mm 28 W/m2
16:49 43.3 °F /  6.3 °C 42.1 °F /  5.6 °C 30.3in /  1027.4hPa West 4mph /  6.4km/h 12mph /  19.3km/h 95% 0in /  0.0mm 32 W/m2
16:54 43.3 °F /  6.3 °C 42.1 °F /  5.6 °C 30.3in /  1027.4hPa West 8.9mph /  14.3km/h 14mph /  22.5km/h 95% 0in /  0.0mm 23 W/m2
16:59 43.3 °F /  6.3 °C 42.1 °F /  5.6 °C 30.3in /  1027.4hPa West 6mph /  9.7km/h 11mph /  17.7km/h 95% 0in /  0.0mm 18 W/m2
17:04 43.3 °F /  6.3 °C 42.1 °F /  5.6 °C 30.3in /  1027.4hPa Calm   3mph /  4.8km/h 95% 0in /  0.0mm 12 W/m2
17:09 43.3 °F /  6.3 °C 42.1 °F /  5.6 °C 30.3in /  1027.4hPa NE 2mph /  3.2km/h 11mph /  17.7km/h 95% 0in /  0.0mm 9 W/m2
17:14 43.3 °F /  6.3 °C 42.1 °F /  5.6 °C 30.3in /  1027.4hPa NNW 0.9mph /  1.4km/h 5mph /  8km/h 95% 0in /  0.0mm 5 W/m2
17:19 43.2 °F /  6.2 °C 41.9 °F /  5.5 °C 30.4in /  1027.8hPa WSW 6.9mph /  11.1km/h 10mph /  16.1km/h 95% 0in /  0.0mm 0 W/m2
17:24 43.2 °F /  6.2 °C 41.9 °F /  5.5 °C 30.4in /  1027.8hPa SW 2mph /  3.2km/h 8mph /  12.9km/h 95% 0in /  0.0mm 0 W/m2
17:29 43.3 °F /  6.3 °C 42.1 °F /  5.6 °C 30.3in /  1027.4hPa West 4mph /  6.4km/h 9mph /  14.5km/h 95% 0in /  0.0mm 0 W/m2
17:34 43.2 °F /  6.2 °C 41.9 °F /  5.5 °C 30.3in /  1027.4hPa NW 4.9mph /  7.9km/h 14mph /  22.5km/h 95% 0in /  0.0mm 0 W/m2
17:39 43.2 °F /  6.2 °C 41.9 °F /  5.5 °C 30.3in /  1027.4hPa North 0.9mph /  1.4km/h 6mph /  9.7km/h 95% 0in /  0.0mm 0 W/m2
17:44 43.3 °F /  6.3 °C 42.1 °F /  5.6 °C 30.3in /  1027.4hPa WSW 0.9mph /  1.4km/h 14mph /  22.5km/h 95% 0in /  0.0mm 0 W/m2
17:49 43.3 °F /  6.3 °C 42.1 °F /  5.6 °C 30.4in /  1027.8hPa West 6.9mph /  11.1km/h 9mph /  14.5km/h 95% 0in /  0.0mm 0 W/m2
17:54 43.3 °F /  6.3 °C 42.1 °F /  5.6 °C 30.3in /  1027.4hPa NNW 4mph /  6.4km/h 12mph /  19.3km/h 95% 0in /  0.0mm 0 W/m2
17:59 43.3 °F /  6.3 °C 42.1 °F /  5.6 °C 30.3in /  1027.4hPa North 2mph /  3.2km/h 10mph /  16.1km/h 95% 0in /  0.0mm 0 W/m2
18:04 43.3 °F /  6.3 °C 42.1 °F /  5.6 °C 30.4in /  1027.8hPa WSW 4mph /  6.4km/h 10mph /  16.1km/h 95% 0in /  0.0mm 0 W/m2
18:09 43.3 °F /  6.3 °C 42.1 °F /  5.6 °C 30.4in /  1027.8hPa NW 2.9mph /  4.7km/h 9mph /  14.5km/h 95% 0in /  0.0mm 0 W/m2
18:14 43.3 °F /  6.3 °C 42.1 °F /  5.6 °C 30.4in /  1027.8hPa WNW 4mph /  6.4km/h 7mph /  11.3km/h 95% 0in /  0.0mm 0 W/m2
18:19 43.3 °F /  6.3 °C 42.1 °F /  5.6 °C 30.4in /  1028.1hPa WSW 4mph /  6.4km/h 12mph /  19.3km/h 95% 0in /  0.0mm 0 W/m2
18:24 43.3 °F /  6.3 °C 42.1 °F /  5.6 °C 30.4in /  1027.8hPa NW 4mph /  6.4km/h 10mph /  16.1km/h 95% 0.01in /  0.2mm 0 W/m2
18:29 43.3 °F /  6.3 °C 42.1 °F /  5.6 °C 30.3in /  1027.4hPa West 2mph /  3.2km/h 10mph /  16.1km/h 95% 0.01in /  0.2mm 0 W/m2
18:34 43.3 °F /  6.3 °C 42.1 °F /  5.6 °C 30.4in /  1027.8hPa WNW 6.9mph /  11.1km/h 10mph /  16.1km/h 95% 0.01in /  0.2mm 0 W/m2
18:39 43.3 °F /  6.3 °C 42.1 °F /  5.6 °C 30.4in /  1027.8hPa South 10.1mph /  16.3km/h 10mph /  16.1km/h 95% 0.01in /  0.2mm 0 W/m2
18:44 43.3 °F /  6.3 °C 42.1 °F /  5.6 °C 30.4in /  1027.8hPa West 0.9mph /  1.4km/h 6mph /  9.7km/h 95% 0.01in /  0.2mm 0 W/m2
18:49 43.5 °F /  6.4 °C 42.3 °F /  5.7 °C 30.4in /  1027.8hPa WNW 2.9mph /  4.7km/h 10mph /  16.1km/h 95% 0.02in /  0.5mm 0 W/m2
18:54 43.5 °F /  6.4 °C 42.3 °F /  5.7 °C 30.4in /  1028.1hPa WNW 0.9mph /  1.4km/h 11mph /  17.7km/h 95% 0.02in /  0.5mm 0 W/m2
18:59 43.5 °F /  6.4 °C 42.3 °F /  5.7 °C 30.4in /  1028.1hPa WNW 0.9mph /  1.4km/h 4mph /  6.4km/h 95% 0.02in /  0.5mm 0 W/m2
19:04 43.5 °F /  6.4 °C 42.3 °F /  5.7 °C 30.4in /  1028.1hPa West 2mph /  3.2km/h 11mph /  17.7km/h 95% 0.02in /  0.5mm 0 W/m2
19:09 43.5 °F /  6.4 °C 42.3 °F /  5.7 °C 30.4in /  1027.8hPa WNW 0.9mph /  1.4km/h 7mph /  11.3km/h 95% 0.02in /  0.5mm 0 W/m2
19:14 43.5 °F /  6.4 °C 42.3 °F /  5.7 °C 30.4in /  1028.1hPa NW 2.9mph /  4.7km/h 10mph /  16.1km/h 95% 0.02in /  0.5mm 0 W/m2
19:19 43.5 °F /  6.4 °C 42.3 °F /  5.7 °C 30.4in /  1027.8hPa NW 4.9mph /  7.9km/h 8mph /  12.9km/h 95% 0.02in /  0.5mm 0 W/m2
19:24 43.5 °F /  6.4 °C 42.3 °F /  5.7 °C 30.4in /  1027.8hPa NNW 2mph /  3.2km/h 7mph /  11.3km/h 95% 0.02in /  0.5mm 0 W/m2
19:29 43.5 °F /  6.4 °C 42.3 °F /  5.7 °C 30.4in /  1027.8hPa NNW 2.9mph /  4.7km/h 8mph /  12.9km/h 95% 0.02in /  0.5mm 0 W/m2
19:34 43.7 °F /  6.5 °C 42.4 °F /  5.8 °C 30.4in /  1027.8hPa WNW 4mph /  6.4km/h 6mph /  9.7km/h 95% 0.02in /  0.5mm 0 W/m2
19:39 43.7 °F /  6.5 °C 42.4 °F /  5.8 °C 30.4in /  1027.8hPa NW 2.9mph /  4.7km/h 9mph /  14.5km/h 95% 0.02in /  0.5mm 0 W/m2
19:44 43.9 °F /  6.6 °C 42.6 °F /  5.9 °C 30.4in /  1028.1hPa SW 0.9mph /  1.4km/h 2mph /  3.2km/h 95% 0.02in /  0.5mm 0 W/m2
19:49 43.9 °F /  6.6 °C 42.6 °F /  5.9 °C 30.4in /  1027.8hPa West 6mph /  9.7km/h 9mph /  14.5km/h 95% 0.02in /  0.5mm 0 W/m2
19:54 43.9 °F /  6.6 °C 42.6 °F /  5.9 °C 30.4in /  1027.8hPa WSW 0.9mph /  1.4km/h 4mph /  6.4km/h 95% 0.02in /  0.5mm 0 W/m2
19:59 43.9 °F /  6.6 °C 42.6 °F /  5.9 °C 30.4in /  1027.8hPa NW 2mph /  3.2km/h 3mph /  4.8km/h 95% 0.02in /  0.5mm 0 W/m2
20:04 43.9 °F /  6.6 °C 42.6 °F /  5.9 °C 30.4in /  1028.1hPa WNW 6.9mph /  11.1km/h 9mph /  14.5km/h 95% 0.02in /  0.5mm 0 W/m2
20:09 43.9 °F /  6.6 °C 42.6 °F /  5.9 °C 30.4in /  1027.8hPa NNW 6mph /  9.7km/h 6mph /  9.7km/h 95% 0.02in /  0.5mm 0 W/m2
20:14 43.9 °F /  6.6 °C 42.6 °F /  5.9 °C 30.4in /  1027.8hPa SSW 6mph /  9.7km/h 7mph /  11.3km/h 95% 0.02in /  0.5mm 0 W/m2
20:19 44.1 °F /  6.7 °C 42.8 °F /  6 °C 30.4in /  1027.8hPa SW 4.9mph /  7.9km/h 6mph /  9.7km/h 95% 0.02in /  0.5mm 0 W/m2
20:24 44.1 °F /  6.7 °C 42.8 °F /  6 °C 30.4in /  1027.8hPa WNW 2mph /  3.2km/h 9mph /  14.5km/h 95% 0.02in /  0.5mm 0 W/m2
20:29 44.1 °F /  6.7 °C 42.8 °F /  6 °C 30.4in /  1027.8hPa NNW 2mph /  3.2km/h 5mph /  8km/h 95% 0.02in /  0.5mm 0 W/m2
20:34 44.1 °F /  6.7 °C 42.8 °F /  6 °C 30.4in /  1027.8hPa West 2.9mph /  4.7km/h 9mph /  14.5km/h 95% 0.02in /  0.5mm 0 W/m2
20:39 44.1 °F /  6.7 °C 42.8 °F /  6 °C 30.4in /  1027.8hPa West 2.9mph /  4.7km/h 11mph /  17.7km/h 95% 0.02in /  0.5mm 0 W/m2
20:44 44.1 °F /  6.7 °C 42.8 °F /  6 °C 30.4in /  1027.8hPa West 2.9mph /  4.7km/h 4mph /  6.4km/h 95% 0.02in /  0.5mm 0 W/m2
20:49 44.1 °F /  6.7 °C 42.8 °F /  6 °C 30.4in /  1028.1hPa West 2.9mph /  4.7km/h 5mph /  8km/h 95% 0.02in /  0.5mm 0 W/m2
20:54 44.1 °F /  6.7 °C 42.8 °F /  6 °C 30.4in /  1028.1hPa WSW 2mph /  3.2km/h 2mph /  3.2km/h 95% 0.02in /  0.5mm 0 W/m2
20:59 44.1 °F /  6.7 °C 42.8 °F /  6 °C 30.4in /  1028.1hPa SW 4.9mph /  7.9km/h 5mph /  8km/h 95% 0.02in /  0.5mm 0 W/m2
21:04 44.1 °F /  6.7 °C 42.8 °F /  6 °C 30.4in /  1028.1hPa WSW 4.9mph /  7.9km/h 10mph /  16.1km/h 95% 0.02in /  0.5mm 0 W/m2
21:10 44.2 °F /  6.8 °C 43 °F /  6.1 °C 30.4in /  1028.1hPa West 6mph /  9.7km/h 11mph /  17.7km/h 95% 0.02in /  0.5mm 0 W/m2
21:15 44.2 °F /  6.8 °C 43 °F /  6.1 °C 30.4in /  1028.1hPa WSW 6.9mph /  11.1km/h 7mph /  11.3km/h 95% 0.02in /  0.5mm 0 W/m2
21:20 44.2 °F /  6.8 °C 43 °F /  6.1 °C 30.4in /  1028.1hPa West 2mph /  3.2km/h 6mph /  9.7km/h 95% 0.02in /  0.5mm 0 W/m2
21:25 44.2 °F /  6.8 °C 43.2 °F /  6.2 °C 30.4in /  1028.5hPa Calm   3mph /  4.8km/h 96% 0.02in /  0.5mm 0 W/m2
21:30 44.2 °F /  6.8 °C 43.2 °F /  6.2 °C 30.4in /  1028.5hPa WNW 2.9mph /  4.7km/h 4mph /  6.4km/h 96% 0.02in /  0.5mm 0 W/m2
21:35 44.2 °F /  6.8 °C 43.2 °F /  6.2 °C 30.4in /  1028.5hPa WNW 4mph /  6.4km/h 4mph /  6.4km/h 96% 0.02in /  0.5mm 0 W/m2
21:40 44.2 °F /  6.8 °C 43.2 °F /  6.2 °C 30.4in /  1028.5hPa SW 2mph /  3.2km/h 4mph /  6.4km/h 96% 0.01in /  0.2mm 0 W/m2
21:45 44.4 °F /  6.9 °C 43.3 °F /  6.3 °C 30.4in /  1028.5hPa West 2.9mph /  4.7km/h 7mph /  11.3km/h 96% 0.01in /  0.2mm 0 W/m2
21:50 44.4 °F /  6.9 °C 43.3 °F /  6.3 °C 30.4in /  1028.5hPa WNW 2.9mph /  4.7km/h 6mph /  9.7km/h 96% 0.01in /  0.2mm 0 W/m2
21:55 44.6 °F /  7 °C 43.5 °F /  6.4 °C 30.4in /  1028.1hPa WSW 2mph /  3.2km/h 4mph /  6.4km/h 96% 0in /  0.0mm 0 W/m2
22:00 44.6 °F /  7 °C 43.5 °F /  6.4 °C 30.4in /  1028.1hPa West 2.9mph /  4.7km/h 4mph /  6.4km/h 96% 0in /  0.0mm 0 W/m2
22:05 44.8 °F /  7.1 °C 43.7 °F /  6.5 °C 30.4in /  1028.1hPa SW 0.9mph /  1.4km/h 7mph /  11.3km/h 96% 0.01in /  0.2mm 0 W/m2
22:10 44.8 °F /  7.1 °C 43.7 °F /  6.5 °C 30.4in /  1028.1hPa WNW 0.9mph /  1.4km/h 2mph /  3.2km/h 96% 0.01in /  0.2mm 0 W/m2
22:15 45 °F /  7.2 °C 43.9 °F /  6.6 °C 30.4in /  1028.1hPa WSW 4mph /  6.4km/h 8mph /  12.9km/h 96% 0.01in /  0.2mm 0 W/m2
22:20 45 °F /  7.2 °C 43.9 °F /  6.6 °C 30.4in /  1028.1hPa WNW 6mph /  9.7km/h 10mph /  16.1km/h 96% 0.01in /  0.2mm 0 W/m2
22:25 45.1 °F /  7.3 °C 44.1 °F /  6.7 °C 30.4in /  1028.1hPa West 4mph /  6.4km/h 8mph /  12.9km/h 96% 0.01in /  0.2mm 0 W/m2
22:30 45.3 °F /  7.4 °C 44.2 °F /  6.8 °C 30.4in /  1028.1hPa WSW 8.1mph /  13km/h 9mph /  14.5km/h 96% 0.01in /  0.2mm 0 W/m2
22:35 45.5 °F /  7.5 °C 44.4 °F /  6.9 °C 30.4in /  1028.1hPa West 2mph /  3.2km/h 6mph /  9.7km/h 96% 0.01in /  0.2mm 0 W/m2
22:40 45.7 °F /  7.6 °C 44.6 °F /  7 °C 30.4in /  1027.8hPa West 2.9mph /  4.7km/h 6mph /  9.7km/h 96% 0.01in /  0.2mm 0 W/m2
22:45 45.7 °F /  7.6 °C 44.6 °F /  7 °C 30.4in /  1028.1hPa WSW 4mph /  6.4km/h 11mph /  17.7km/h 96% 0.01in /  0.2mm 0 W/m2
22:50 45.7 °F /  7.6 °C 44.6 °F /  7 °C 30.4in /  1027.8hPa West 8.1mph /  13km/h 8mph /  12.9km/h 96% 0.01in /  0.2mm 0 W/m2
22:55 45.9 °F /  7.7 °C 44.8 °F /  7.1 °C 30.4in /  1028.1hPa West 2mph /  3.2km/h 11mph /  17.7km/h 96% 0.01in /  0.2mm 0 W/m2
23:00 45.9 °F /  7.7 °C 44.8 °F /  7.1 °C 30.4in /  1027.8hPa West 4mph /  6.4km/h 11mph /  17.7km/h 96% 0.01in /  0.2mm 0 W/m2
23:05 46 °F /  7.8 °C 45 °F /  7.2 °C 30.4in /  1027.8hPa West 6mph /  9.7km/h 8mph /  12.9km/h 96% 0in /  0.0mm 0 W/m2
23:10 46.2 °F /  7.9 °C 45.1 °F /  7.3 °C 30.4in /  1027.8hPa WNW 4mph /  6.4km/h 11mph /  17.7km/h 96% 0in /  0.0mm 0 W/m2
23:15 46.2 °F /  7.9 °C 45.1 °F /  7.3 °C 30.4in /  1028.1hPa WSW 6.9mph /  11.1km/h 8mph /  12.9km/h 96% 0in /  0.0mm 0 W/m2
23:20 46.4 °F /  8 °C 45 °F /  7.2 °C 30.4in /  1028.1hPa West 4mph /  6.4km/h 7mph /  11.3km/h 95% 0in /  0.0mm 0 W/m2
23:25 46.6 °F /  8.1 °C 45.1 °F /  7.3 °C 30.4in /  1028.1hPa West 0.9mph /  1.4km/h 6mph /  9.7km/h 95% 0in /  0.0mm 0 W/m2
23:30 46.6 °F /  8.1 °C 45.1 °F /  7.3 °C 30.4in /  1027.8hPa West 2.9mph /  4.7km/h 5mph /  8km/h 95% 0in /  0.0mm 0 W/m2
23:35 46.6 °F /  8.1 °C 45.1 °F /  7.3 °C 30.4in /  1027.8hPa WNW 2.9mph /  4.7km/h 8mph /  12.9km/h 95% 0in /  0.0mm 0 W/m2
23:40 46.6 °F /  8.1 °C 45.1 °F /  7.3 °C 30.4in /  1027.8hPa West 2mph /  3.2km/h 6mph /  9.7km/h 95% 0in /  0.0mm 0 W/m2
23:45 46.8 °F /  8.2 °C 45.3 °F /  7.4 °C 30.4in /  1028.1hPa WNW 4.9mph /  7.9km/h 8mph /  12.9km/h 95% 0in /  0.0mm 0 W/m2
23:50 46.8 °F /  8.2 °C 45.3 °F /  7.4 °C 30.4in /  1027.8hPa WNW 2.9mph /  4.7km/h 9mph /  14.5km/h 95% 0in /  0.0mm 0 W/m2
23:55 46.8 °F /  8.2 °C 45.3 °F /  7.4 °C 30.4in /  1027.8hPa WSW 8.9mph /  14.3km/h 11mph /  17.7km/h 95% 0.01in /  0.2mm 0 W/m2
Juneau County Weather
Compliments of Weather Underground - 4 mb